createdAt,value
2018-12-01T00:06:01.663Z,-2.88
2018-12-01T00:16:21.094Z,-2.85
2018-12-01T00:26:39.977Z,-2.82
2018-12-01T00:37:00.979Z,-2.85
2018-12-01T00:47:21.352Z,-2.87
2018-12-01T00:57:41.078Z,-2.82
2018-12-01T01:08:00.699Z,-2.83
2018-12-01T01:18:20.594Z,-2.78
2018-12-01T01:28:40.811Z,-2.72
2018-12-01T01:39:00.721Z,-2.71
2018-12-01T01:49:20.802Z,-2.76
2018-12-01T01:59:40.147Z,-2.68
2018-12-01T02:09:59.541Z,-2.78
2018-12-01T02:20:19.813Z,-2.61
2018-12-01T02:30:39.137Z,-2.55
2018-12-01T02:41:00.245Z,-2.41
2018-12-01T02:51:19.184Z,-2.41
2018-12-01T03:01:38.513Z,-2.42
2018-12-01T03:11:57.377Z,-2.37
2018-12-01T03:22:16.994Z,-2.31
2018-12-01T03:32:36.808Z,-2.25
2018-12-01T03:42:56.025Z,-2.16
2018-12-01T03:53:15.481Z,-2.15
2018-12-01T04:03:36.279Z,-2.17
2018-12-01T04:13:55.389Z,-2.09
2018-12-01T04:24:15.071Z,-2.04
2018-12-01T04:34:35.815Z,-1.96
2018-12-01T04:44:54.899Z,-2.05
2018-12-01T04:55:15.131Z,-2.13
2018-12-01T05:05:35.486Z,-1.91
2018-12-01T05:15:54.619Z,-1.91
2018-12-01T05:26:15.246Z,-1.71
2018-12-01T05:36:34.908Z,-1.49
2018-12-01T05:46:56.198Z,-1.49
2018-12-01T05:57:16.290Z,-1.28
2018-12-01T06:07:35.649Z,-1.07
2018-12-01T06:17:56.368Z,-0.90
2018-12-01T06:28:15.875Z,-0.71
2018-12-01T06:38:34.798Z,-0.54
2018-12-01T06:48:54.938Z,-0.34
2018-12-01T06:59:14.507Z,-0.23
2018-12-01T07:09:33.745Z,-0.15
2018-12-01T07:19:53.205Z,0.03
2018-12-01T07:30:14.697Z,0.14
2018-12-01T07:40:34.051Z,0.21
2018-12-01T07:50:55.089Z,0.30
2018-12-01T08:01:14.894Z,0.38
2018-12-01T08:11:34.510Z,0.59
2018-12-01T08:21:54.249Z,0.69
2018-12-01T08:32:14.850Z,0.82
2018-12-01T08:42:33.973Z,0.94
2018-12-01T08:52:53.534Z,0.88
2018-12-01T09:03:30.936Z,1.13
2018-12-01T09:13:50.444Z,1.13
2018-12-01T09:24:13.076Z,1.21
2018-12-01T09:34:32.172Z,1.31
2018-12-01T09:44:51.699Z,1.33
2018-12-01T09:55:16.753Z,1.30
2018-12-01T10:05:35.546Z,1.39
2018-12-01T10:15:55.526Z,1.41
2018-12-01T10:26:15.833Z,1.49
2018-12-01T10:36:35.626Z,1.60
2018-12-01T10:46:55.862Z,1.64
2018-12-01T10:57:16.242Z,1.71
2018-12-01T11:07:35.763Z,1.63
2018-12-01T11:17:55.625Z,1.90
2018-12-01T11:28:15.942Z,1.88
2018-12-01T11:38:35.680Z,1.99
2018-12-01T11:48:56.900Z,1.84
2018-12-01T11:59:16.601Z,1.93
2018-12-01T12:09:36.687Z,1.81
2018-12-01T15:11:33.481Z,1.68
2018-12-01T15:21:52.913Z,1.43
2018-12-01T15:32:13.996Z,1.47
2018-12-01T15:42:34.030Z,1.47
2018-12-01T15:52:54.221Z,1.47
2018-12-01T16:03:14.832Z,1.53
2018-12-01T16:13:33.925Z,1.54
2018-12-01T16:23:54.653Z,1.60
2018-12-01T16:34:14.599Z,1.48
2018-12-01T16:44:35.109Z,1.28
2018-12-01T16:54:55.100Z,1.06
2018-12-01T17:05:16.590Z,0.79
2018-12-01T17:15:35.864Z,0.62
2018-12-01T17:25:56.006Z,0.23
2018-12-01T17:36:16.469Z,-0.11
2018-12-01T17:46:36.888Z,-0.30
2018-12-01T17:56:57.001Z,-0.24
2018-12-01T18:07:18.067Z,-0.27
2018-12-01T18:17:37.725Z,-0.19
2018-12-01T18:28:00.124Z,-0.04
2018-12-01T18:38:20.333Z,0.18
2018-12-01T18:48:40.866Z,0.52
2018-12-01T18:59:00.991Z,0.41
2018-12-01T19:09:21.599Z,0.45
2018-12-01T19:19:42.782Z,0.60
2018-12-01T19:30:05.242Z,0.69
2018-12-01T19:40:32.241Z,0.63
2018-12-01T19:50:54.900Z,0.83
2018-12-01T20:01:14.674Z,0.75
2018-12-01T20:11:35.000Z,0.85
2018-12-01T20:21:55.108Z,0.71
2018-12-01T20:32:14.874Z,0.65
2018-12-01T20:42:34.151Z,0.58
2018-12-01T20:52:54.227Z,0.51
2018-12-01T21:03:14.609Z,0.60
2018-12-01T21:13:34.660Z,0.49
2018-12-01T21:23:54.395Z,0.48
2018-12-01T21:34:13.982Z,0.25
2018-12-01T21:44:35.338Z,0.33
2018-12-01T21:54:54.636Z,0.19
2018-12-01T22:05:15.509Z,0.22
2018-12-01T22:15:34.893Z,0.06
2018-12-01T22:25:55.525Z,0.08
2018-12-01T22:36:15.005Z,0.05
2018-12-01T22:46:34.576Z,0.13
2018-12-01T22:56:53.953Z,0.02
2018-12-01T23:07:13.843Z,-0.07
2018-12-01T23:17:33.109Z,-0.19
2018-12-01T23:27:52.549Z,-0.28
2018-12-01T23:38:11.993Z,-0.10
2018-12-01T23:48:31.153Z,-0.07
2018-12-01T23:58:50.592Z,-0.04
